SAVT/REL METAR and TAF weather

Enter ICAO airport designator
Station Type Date Time Source
SAVT METAR 2019/04/08 10:30 UTC NOAA

SAVT 081030Z 05004KT 9999 BR NSC 08/07 Q1016


Station Type Date Time Source
SAVT Decoded METAR 2019/04/08 10:30 UTC NOAA

Trelew Aerodrome, Argentina (SAVT) 43-12S 065-16W 43M
Apr 08, 2019 - 06:30 AM EDT / 2019.04.08 1030 UTC
Wind: from the NE (050 degrees) at 5 MPH (4 KT):0
Visibility: greater than 7 mile(s):0
Weather: mist
Temperature: 46 F (8 C)
Dew Point: 44 F (7 C)
Relative Humidity: 93%
Pressure (altimeter): 30.00 in. Hg (1016 hPa)
ob: SAVT 081030Z 05004KT 9999 BR NSC 08/07 Q1016
cycle: 10

Station Type Date Time Source
SAVT TAF 2019/04/15 06:06 UTC NOAA

TAF SAVT 150500Z 1506/1606 32005KT 9999 SCT035 TX21/1518Z TN04/1512Z
BECMG 1518/1521 33010KT
BECMG 1523/1601 36015KT

Example: see airport list